sensor_id;sensor_type;location;lat;lon;timestamp;P1;durP1;ratioP1;P2;durP2;ratioP2
57465;SDS011;67033;44.984;20.068;2023-04-01T00:01:40;5.45;;;2.25;;
57465;SDS011;67033;44.984;20.068;2023-04-01T00:04:06;6.22;;;2.40;;
57465;SDS011;67033;44.984;20.068;2023-04-01T00:06:32;7.38;;;2.65;;
57465;SDS011;67033;44.984;20.068;2023-04-01T00:08:58;8.70;;;2.85;;
57465;SDS011;67033;44.984;20.068;2023-04-01T00:11:24;8.32;;;2.70;;
57465;SDS011;67033;44.984;20.068;2023-04-01T00:13:52;6.78;;;2.45;;
57465;SDS011;67033;44.984;20.068;2023-04-01T00:16:18;6.28;;;2.35;;
57465;SDS011;67033;44.984;20.068;2023-04-01T00:18:44;6.40;;;2.65;;
57465;SDS011;67033;44.984;20.068;2023-04-01T00:21:12;9.38;;;2.30;;
57465;SDS011;67033;44.984;20.068;2023-04-01T00:23:38;7.60;;;2.40;;
57465;SDS011;67033;44.984;20.068;2023-04-01T00:26:04;10.50;;;2.92;;
57465;SDS011;67033;44.984;20.068;2023-04-01T00:28:30;9.52;;;2.60;;
57465;SDS011;67033;44.984;20.068;2023-04-01T00:30:58;8.10;;;2.80;;
57465;SDS011;67033;44.984;20.068;2023-04-01T00:33:30;10.95;;;3.22;;
57465;SDS011;67033;44.984;20.068;2023-04-01T00:35:55;9.85;;;3.05;;
57465;SDS011;67033;44.984;20.068;2023-04-01T00:38:30;5.22;;;2.47;;
57465;SDS011;67033;44.984;20.068;2023-04-01T00:40:57;8.60;;;2.60;;
57465;SDS011;67033;44.984;20.068;2023-04-01T00:43:24;6.18;;;2.80;;
57465;SDS011;67033;44.984;20.068;2023-04-01T00:45:50;7.25;;;2.80;;
57465;SDS011;67033;44.984;20.068;2023-04-01T00:48:17;7.20;;;2.90;;
57465;SDS011;67033;44.984;20.068;2023-04-01T00:50:52;10.45;;;3.25;;
57465;SDS011;67033;44.984;20.068;2023-04-01T00:53:23;6.57;;;2.67;;
57465;SDS011;67033;44.984;20.068;2023-04-01T00:56:11;9.20;;;2.65;;
57465;SDS011;67033;44.984;20.068;2023-04-01T00:58:40;9.27;;;2.50;;
57465;SDS011;67033;44.984;20.068;2023-04-01T01:01:09;6.75;;;2.75;;
57465;SDS011;67033;44.984;20.068;2023-04-01T01:03:35;5.78;;;2.88;;
57465;SDS011;67033;44.984;20.068;2023-04-01T01:08:39;6.78;;;2.83;;
57465;SDS011;67033;44.984;20.068;2023-04-01T01:11:35;8.77;;;2.50;;
57465;SDS011;67033;44.984;20.068;2023-04-01T01:14:25;12.10;;;3.10;;
57465;SDS011;67033;44.984;20.068;2023-04-01T01:16:54;5.15;;;2.58;;
57465;SDS011;67033;44.984;20.068;2023-04-01T01:19:39;6.82;;;3.42;;
57465;SDS011;67033;44.984;20.068;2023-04-01T01:27:37;6.93;;;2.85;;
57465;SDS011;67033;44.984;20.068;2023-04-01T01:33:03;8.65;;;3.45;;
57465;SDS011;67033;44.984;20.068;2023-04-01T01:38:10;8.13;;;3.58;;
57465;SDS011;67033;44.984;20.068;2023-04-01T01:40:40;9.38;;;3.30;;
57465;SDS011;67033;44.984;20.068;2023-04-01T01:43:10;7.88;;;3.75;;
57465;SDS011;67033;44.984;20.068;2023-04-01T01:45:40;9.55;;;3.72;;
57465;SDS011;67033;44.984;20.068;2023-04-01T01:48:16;9.50;;;3.20;;
57465;SDS011;67033;44.984;20.068;2023-04-01T01:50:43;11.57;;;3.28;;
57465;SDS011;67033;44.984;20.068;2023-04-01T01:53:11;8.77;;;3.75;;
57465;SDS011;67033;44.984;20.068;2023-04-01T01:55:39;13.52;;;5.15;;
57465;SDS011;67033;44.984;20.068;2023-04-01T01:58:09;8.25;;;3.63;;
57465;SDS011;67033;44.984;20.068;2023-04-01T02:00:40;9.85;;;4.43;;
57465;SDS011;67033;44.984;20.068;2023-04-01T02:03:10;15.43;;;4.80;;
57465;SDS011;67033;44.984;20.068;2023-04-01T02:05:37;11.43;;;5.38;;
57465;SDS011;67033;44.984;20.068;2023-04-01T02:08:14;11.73;;;5.50;;
57465;SDS011;67033;44.984;20.068;2023-04-01T02:10:43;8.98;;;5.07;;
57465;SDS011;67033;44.984;20.068;2023-04-01T02:13:14;7.10;;;3.17;;
57465;SDS011;67033;44.984;20.068;2023-04-01T02:15:42;11.55;;;4.22;;
57465;SDS011;67033;44.984;20.068;2023-04-01T02:18:11;9.63;;;4.40;;
57465;SDS011;67033;44.984;20.068;2023-04-01T02:20:38;9.82;;;3.92;;
57465;SDS011;67033;44.984;20.068;2023-04-01T02:23:05;10.55;;;4.10;;
57465;SDS011;67033;44.984;20.068;2023-04-01T02:25:36;8.77;;;5.32;;
57465;SDS011;67033;44.984;20.068;2023-04-01T02:28:06;16.02;;;6.38;;
57465;SDS011;67033;44.984;20.068;2023-04-01T02:30:34;13.98;;;5.70;;
57465;SDS011;67033;44.984;20.068;2023-04-01T02:33:01;15.60;;;6.90;;
57465;SDS011;67033;44.984;20.068;2023-04-01T02:35:27;6.25;;;4.68;;
57465;SDS011;67033;44.984;20.068;2023-04-01T02:37:53;10.85;;;4.88;;
57465;SDS011;67033;44.984;20.068;2023-04-01T02:40:20;17.98;;;9.15;;
57465;SDS011;67033;44.984;20.068;2023-04-01T02:42:46;11.70;;;4.63;;
57465;SDS011;67033;44.984;20.068;2023-04-01T02:45:13;9.27;;;4.82;;
57465;SDS011;67033;44.984;20.068;2023-04-01T02:47:40;12.63;;;6.03;;
57465;SDS011;67033;44.984;20.068;2023-04-01T02:50:06;7.85;;;5.03;;
57465;SDS011;67033;44.984;20.068;2023-04-01T02:52:33;14.07;;;5.80;;
57465;SDS011;67033;44.984;20.068;2023-04-01T02:54:59;12.88;;;4.97;;
57465;SDS011;67033;44.984;20.068;2023-04-01T02:57:25;6.13;;;3.95;;
57465;SDS011;67033;44.984;20.068;2023-04-01T02:59:51;6.97;;;3.55;;
57465;SDS011;67033;44.984;20.068;2023-04-01T03:02:17;7.85;;;3.55;;
57465;SDS011;67033;44.984;20.068;2023-04-01T03:04:44;9.30;;;3.78;;
57465;SDS011;67033;44.984;20.068;2023-04-01T03:07:10;7.70;;;3.45;;
57465;SDS011;67033;44.984;20.068;2023-04-01T03:09:37;12.75;;;4.57;;
57465;SDS011;67033;44.984;20.068;2023-04-01T03:12:03;15.13;;;4.80;;
57465;SDS011;67033;44.984;20.068;2023-04-01T03:14:29;10.25;;;4.30;;
57465;SDS011;67033;44.984;20.068;2023-04-01T03:16:55;9.45;;;4.07;;
57465;SDS011;67033;44.984;20.068;2023-04-01T03:19:21;8.02;;;3.63;;
57465;SDS011;67033;44.984;20.068;2023-04-01T03:21:47;9.70;;;3.90;;
57465;SDS011;67033;44.984;20.068;2023-04-01T03:24:13;6.82;;;3.95;;
57465;SDS011;67033;44.984;20.068;2023-04-01T03:26:39;11.52;;;3.60;;
57465;SDS011;67033;44.984;20.068;2023-04-01T03:29:05;13.15;;;4.53;;
57465;SDS011;67033;44.984;20.068;2023-04-01T03:31:30;9.25;;;4.10;;
57465;SDS011;67033;44.984;20.068;2023-04-01T03:33:56;9.13;;;3.45;;
57465;SDS011;67033;44.984;20.068;2023-04-01T03:36:22;7.00;;;3.50;;
57465;SDS011;67033;44.984;20.068;2023-04-01T03:38:48;7.93;;;3.70;;
57465;SDS011;67033;44.984;20.068;2023-04-01T03:41:15;6.93;;;3.53;;
57465;SDS011;67033;44.984;20.068;2023-04-01T03:43:41;6.25;;;2.20;;
57465;SDS011;67033;44.984;20.068;2023-04-01T03:46:08;4.90;;;2.22;;
57465;SDS011;67033;44.984;20.068;2023-04-01T03:48:33;4.45;;;2.50;;
57465;SDS011;67033;44.984;20.068;2023-04-01T03:51:00;4.22;;;2.15;;
57465;SDS011;67033;44.984;20.068;2023-04-01T03:53:26;3.63;;;2.10;;
57465;SDS011;67033;44.984;20.068;2023-04-01T03:55:52;7.00;;;3.00;;
57465;SDS011;67033;44.984;20.068;2023-04-01T03:58:18;3.58;;;2.90;;
57465;SDS011;67033;44.984;20.068;2023-04-01T04:00:44;5.55;;;2.58;;
57465;SDS011;67033;44.984;20.068;2023-04-01T04:03:11;5.97;;;2.17;;
57465;SDS011;67033;44.984;20.068;2023-04-01T04:05:37;4.55;;;2.00;;
57465;SDS011;67033;44.984;20.068;2023-04-01T04:08:10;5.32;;;2.15;;
57465;SDS011;67033;44.984;20.068;2023-04-01T04:10:36;10.13;;;2.72;;
57465;SDS011;67033;44.984;20.068;2023-04-01T04:13:02;9.57;;;6.78;;
57465;SDS011;67033;44.984;20.068;2023-04-01T04:15:28;7.70;;;4.65;;
57465;SDS011;67033;44.984;20.068;2023-04-01T04:17:54;8.05;;;4.80;;
57465;SDS011;67033;44.984;20.068;2023-04-01T04:20:20;6.07;;;4.05;;
57465;SDS011;67033;44.984;20.068;2023-04-01T04:22:46;3.50;;;2.60;;
57465;SDS011;67033;44.984;20.068;2023-04-01T04:25:12;4.85;;;2.33;;
57465;SDS011;67033;44.984;20.068;2023-04-01T04:27:37;3.63;;;2.75;;
57465;SDS011;67033;44.984;20.068;2023-04-01T04:30:04;2.95;;;1.77;;
57465;SDS011;67033;44.984;20.068;2023-04-01T04:32:31;5.35;;;2.00;;
57465;SDS011;67033;44.984;20.068;2023-04-01T04:34:57;7.00;;;2.03;;
57465;SDS011;67033;44.984;20.068;2023-04-01T04:37:23;4.40;;;2.25;;
57465;SDS011;67033;44.984;20.068;2023-04-01T04:39:51;5.10;;;2.10;;
57465;SDS011;67033;44.984;20.068;2023-04-01T04:42:17;4.07;;;2.17;;
57465;SDS011;67033;44.984;20.068;2023-04-01T04:44:43;3.83;;;2.58;;
57465;SDS011;67033;44.984;20.068;2023-04-01T04:47:09;3.80;;;1.77;;
57465;SDS011;67033;44.984;20.068;2023-04-01T04:49:35;3.00;;;2.00;;
57465;SDS011;67033;44.984;20.068;2023-04-01T04:52:01;7.05;;;2.40;;
57465;SDS011;67033;44.984;20.068;2023-04-01T04:54:28;4.72;;;2.40;;
57465;SDS011;67033;44.984;20.068;2023-04-01T04:56:55;4.10;;;2.38;;
57465;SDS011;67033;44.984;20.068;2023-04-01T04:59:21;3.80;;;2.22;;
57465;SDS011;67033;44.984;20.068;2023-04-01T05:01:47;4.10;;;2.58;;
57465;SDS011;67033;44.984;20.068;2023-04-01T05:04:13;7.00;;;2.50;;
57465;SDS011;67033;44.984;20.068;2023-04-01T05:06:39;5.38;;;2.70;;
57465;SDS011;67033;44.984;20.068;2023-04-01T05:09:06;15.23;;;8.50;;
57465;SDS011;67033;44.984;20.068;2023-04-01T05:11:32;6.68;;;3.58;;
57465;SDS011;67033;44.984;20.068;2023-04-01T05:13:58;4.88;;;2.80;;
57465;SDS011;67033;44.984;20.068;2023-04-01T05:16:24;5.07;;;2.45;;
57465;SDS011;67033;44.984;20.068;2023-04-01T05:18:50;3.17;;;2.25;;
57465;SDS011;67033;44.984;20.068;2023-04-01T05:21:16;4.78;;;2.35;;
57465;SDS011;67033;44.984;20.068;2023-04-01T05:23:42;5.97;;;2.47;;
57465;SDS011;67033;44.984;20.068;2023-04-01T05:26:12;5.28;;;2.47;;
57465;SDS011;67033;44.984;20.068;2023-04-01T05:28:39;4.40;;;2.10;;
57465;SDS011;67033;44.984;20.068;2023-04-01T05:31:06;4.03;;;2.17;;
57465;SDS011;67033;44.984;20.068;2023-04-01T05:33:32;3.80;;;2.00;;
57465;SDS011;67033;44.984;20.068;2023-04-01T05:36:31;5.45;;;2.22;;
57465;SDS011;67033;44.984;20.068;2023-04-01T05:38:50;4.60;;;2.45;;
57465;SDS011;67033;44.984;20.068;2023-04-01T05:41:21;6.50;;;2.83;;
57465;SDS011;67033;44.984;20.068;2023-04-01T05:43:47;5.85;;;4.10;;
57465;SDS011;67033;44.984;20.068;2023-04-01T05:46:14;6.88;;;4.38;;
57465;SDS011;67033;44.984;20.068;2023-04-01T05:48:40;3.72;;;3.03;;
57465;SDS011;67033;44.984;20.068;2023-04-01T05:51:06;5.45;;;3.20;;
57465;SDS011;67033;44.984;20.068;2023-04-01T05:53:32;6.05;;;2.97;;
57465;SDS011;67033;44.984;20.068;2023-04-01T05:56:02;4.65;;;3.08;;
57465;SDS011;67033;44.984;20.068;2023-04-01T05:58:29;6.78;;;3.38;;
57465;SDS011;67033;44.984;20.068;2023-04-01T06:01:02;7.22;;;3.72;;
57465;SDS011;67033;44.984;20.068;2023-04-01T06:03:29;5.38;;;3.60;;
57465;SDS011;67033;44.984;20.068;2023-04-01T06:05:55;6.75;;;3.60;;
57465;SDS011;67033;44.984;20.068;2023-04-01T06:08:21;9.18;;;4.40;;
57465;SDS011;67033;44.984;20.068;2023-04-01T06:16:15;6.70;;;3.97;;
57465;SDS011;67033;44.984;20.068;2023-04-01T06:18:51;4.78;;;3.70;;
57465;SDS011;67033;44.984;20.068;2023-04-01T06:39:42;6.35;;;4.25;;
57465;SDS011;67033;44.984;20.068;2023-04-01T06:42:34;7.55;;;4.43;;
57465;SDS011;67033;44.984;20.068;2023-04-01T06:53:21;12.98;;;4.95;;
57465;SDS011;67033;44.984;20.068;2023-04-01T06:56:08;7.53;;;4.38;;
57465;SDS011;67033;44.984;20.068;2023-04-01T06:58:37;11.45;;;5.15;;
57465;SDS011;67033;44.984;20.068;2023-04-01T07:01:08;8.48;;;5.00;;
57465;SDS011;67033;44.984;20.068;2023-04-01T07:03:37;6.70;;;5.40;;
57465;SDS011;67033;44.984;20.068;2023-04-01T07:06:08;6.28;;;4.85;;
57465;SDS011;67033;44.984;20.068;2023-04-01T07:08:37;18.63;;;9.38;;
57465;SDS011;67033;44.984;20.068;2023-04-01T07:11:05;17.95;;;10.07;;
57465;SDS011;67033;44.984;20.068;2023-04-01T07:16:17;14.80;;;8.57;;
57465;SDS011;67033;44.984;20.068;2023-04-01T07:19:06;8.88;;;6.03;;
57465;SDS011;67033;44.984;20.068;2023-04-01T07:21:35;8.57;;;5.90;;
57465;SDS011;67033;44.984;20.068;2023-04-01T07:24:05;10.20;;;6.25;;
57465;SDS011;67033;44.984;20.068;2023-04-01T07:26:32;13.80;;;7.63;;
57465;SDS011;67033;44.984;20.068;2023-04-01T07:28:58;11.57;;;6.75;;
57465;SDS011;67033;44.984;20.068;2023-04-01T07:31:30;7.47;;;6.32;;
57465;SDS011;67033;44.984;20.068;2023-04-01T07:34:22;13.15;;;8.13;;
57465;SDS011;67033;44.984;20.068;2023-04-01T07:37:15;7.72;;;5.28;;
57465;SDS011;67033;44.984;20.068;2023-04-01T07:45:28;9.45;;;6.57;;
57465;SDS011;67033;44.984;20.068;2023-04-01T07:50:28;11.55;;;6.07;;
57465;SDS011;67033;44.984;20.068;2023-04-01T08:03:54;11.35;;;7.45;;
57465;SDS011;67033;44.984;20.068;2023-04-01T08:06:33;13.35;;;7.30;;
57465;SDS011;67033;44.984;20.068;2023-04-01T08:22:29;68.18;;;34.22;;
57465;SDS011;67033;44.984;20.068;2023-04-01T08:25:21;59.85;;;24.63;;
57465;SDS011;67033;44.984;20.068;2023-04-01T08:27:55;19.98;;;11.80;;
57465;SDS011;67033;44.984;20.068;2023-04-01T08:30:24;18.58;;;11.18;;
57465;SDS011;67033;44.984;20.068;2023-04-01T08:32:53;19.15;;;10.77;;
57465;SDS011;67033;44.984;20.068;2023-04-01T08:35:25;15.25;;;9.27;;
57465;SDS011;67033;44.984;20.068;2023-04-01T08:37:54;9.80;;;7.03;;
57465;SDS011;67033;44.984;20.068;2023-04-01T08:40:37;11.45;;;7.70;;
57465;SDS011;67033;44.984;20.068;2023-04-01T08:45:45;8.18;;;5.45;;
57465;SDS011;67033;44.984;20.068;2023-04-01T08:49:14;6.35;;;4.80;;
57465;SDS011;67033;44.984;20.068;2023-04-01T08:56:34;5.57;;;3.38;;
57465;SDS011;67033;44.984;20.068;2023-04-01T09:04:43;5.18;;;3.25;;
57465;SDS011;67033;44.984;20.068;2023-04-01T09:19:05;8.55;;;4.63;;
57465;SDS011;67033;44.984;20.068;2023-04-01T09:34:39;11.93;;;5.32;;
57465;SDS011;67033;44.984;20.068;2023-04-01T09:37:33;10.25;;;3.33;;
57465;SDS011;67033;44.984;20.068;2023-04-01T09:40:13;4.13;;;2.88;;
57465;SDS011;67033;44.984;20.068;2023-04-01T09:42:48;5.22;;;2.20;;
57465;SDS011;67033;44.984;20.068;2023-04-01T09:48:09;3.13;;;2.38;;
57465;SDS011;67033;44.984;20.068;2023-04-01T09:53:36;4.95;;;2.60;;
57465;SDS011;67033;44.984;20.068;2023-04-01T10:15:45;5.82;;;3.80;;
57465;SDS011;67033;44.984;20.068;2023-04-01T10:24:25;3.38;;;2.53;;
57465;SDS011;67033;44.984;20.068;2023-04-01T10:32:41;4.82;;;2.28;;
57465;SDS011;67033;44.984;20.068;2023-04-01T10:38:19;3.90;;;1.90;;
57465;SDS011;67033;44.984;20.068;2023-04-01T10:49:20;4.75;;;2.25;;
57465;SDS011;67033;44.984;20.068;2023-04-01T11:12:13;7.38;;;3.22;;
57465;SDS011;67033;44.984;20.068;2023-04-01T11:23:31;4.57;;;1.92;;
57465;SDS011;67033;44.984;20.068;2023-04-01T11:37:57;4.70;;;2.05;;
57465;SDS011;67033;44.984;20.068;2023-04-01T11:41:00;2.58;;;1.38;;
57465;SDS011;67033;44.984;20.068;2023-04-01T11:55:14;3.92;;;1.58;;
57465;SDS011;67033;44.984;20.068;2023-04-01T11:57:59;6.32;;;2.08;;
57465;SDS011;67033;44.984;20.068;2023-04-01T12:19:51;1.92;;;0.80;;
57465;SDS011;67033;44.984;20.068;2023-04-01T12:22:44;3.28;;;1.10;;
57465;SDS011;67033;44.984;20.068;2023-04-01T12:31:23;4.00;;;1.13;;
57465;SDS011;67033;44.984;20.068;2023-04-01T12:42:14;2.17;;;1.27;;
57465;SDS011;67033;44.984;20.068;2023-04-01T12:45:08;1.63;;;1.02;;
57465;SDS011;67033;44.984;20.068;2023-04-01T13:02:20;5.13;;;3.05;;
57465;SDS011;67033;44.984;20.068;2023-04-01T13:14:24;3.50;;;1.73;;
57465;SDS011;67033;44.984;20.068;2023-04-01T13:19:29;9.27;;;2.40;;
57465;SDS011;67033;44.984;20.068;2023-04-01T13:33:25;5.75;;;2.80;;
57465;SDS011;67033;44.984;20.068;2023-04-01T13:41:53;3.90;;;2.00;;
57465;SDS011;67033;44.984;20.068;2023-04-01T13:45:32;8.07;;;2.97;;
57465;SDS011;67033;44.984;20.068;2023-04-01T13:47:52;6.35;;;2.83;;
57465;SDS011;67033;44.984;20.068;2023-04-01T13:56:16;6.32;;;3.65;;
57465;SDS011;67033;44.984;20.068;2023-04-01T13:59:29;9.70;;;4.10;;
57465;SDS011;67033;44.984;20.068;2023-04-01T14:10:20;6.00;;;2.67;;
57465;SDS011;67033;44.984;20.068;2023-04-01T14:15:41;5.13;;;2.80;;
57465;SDS011;67033;44.984;20.068;2023-04-01T14:35:25;3.60;;;2.20;;
57465;SDS011;67033;44.984;20.068;2023-04-01T14:41:34;6.20;;;2.63;;
57465;SDS011;67033;44.984;20.068;2023-04-01T14:52:40;2.72;;;1.88;;
57465;SDS011;67033;44.984;20.068;2023-04-01T14:55:48;6.53;;;2.42;;
57465;SDS011;67033;44.984;20.068;2023-04-01T14:58:10;3.20;;;2.50;;
57465;SDS011;67033;44.984;20.068;2023-04-01T15:25:00;5.28;;;2.53;;
57465;SDS011;67033;44.984;20.068;2023-04-01T15:27:35;7.45;;;3.97;;
57465;SDS011;67033;44.984;20.068;2023-04-01T15:38:38;8.45;;;5.28;;
57465;SDS011;67033;44.984;20.068;2023-04-01T15:41:24;6.82;;;3.83;;
57465;SDS011;67033;44.984;20.068;2023-04-01T15:44:03;8.00;;;4.28;;
57465;SDS011;67033;44.984;20.068;2023-04-01T15:46:49;6.35;;;4.70;;
57465;SDS011;67033;44.984;20.068;2023-04-01T15:49:19;9.65;;;4.28;;
57465;SDS011;67033;44.984;20.068;2023-04-01T16:09:14;6.82;;;3.63;;
57465;SDS011;67033;44.984;20.068;2023-04-01T16:23:49;3.92;;;1.90;;
57465;SDS011;67033;44.984;20.068;2023-04-01T16:28:54;3.58;;;2.00;;
57465;SDS011;67033;44.984;20.068;2023-04-01T16:31:55;4.32;;;2.15;;
57465;SDS011;67033;44.984;20.068;2023-04-01T16:40:22;6.75;;;2.70;;
57465;SDS011;67033;44.984;20.068;2023-04-01T16:42:53;4.32;;;2.92;;
57465;SDS011;67033;44.984;20.068;2023-04-01T16:45:38;3.53;;;2.47;;
57465;SDS011;67033;44.984;20.068;2023-04-01T16:48:34;3.50;;;2.40;;
57465;SDS011;67033;44.984;20.068;2023-04-01T16:51:15;5.28;;;2.40;;
57465;SDS011;67033;44.984;20.068;2023-04-01T17:02:33;5.75;;;2.83;;
57465;SDS011;67033;44.984;20.068;2023-04-01T17:21:18;6.10;;;3.35;;
57465;SDS011;67033;44.984;20.068;2023-04-01T17:26:58;11.48;;;4.30;;
57465;SDS011;67033;44.984;20.068;2023-04-01T17:37:54;8.68;;;3.35;;
57465;SDS011;67033;44.984;20.068;2023-04-01T17:45:56;11.73;;;6.35;;
57465;SDS011;67033;44.984;20.068;2023-04-01T17:48:24;12.13;;;7.47;;
57465;SDS011;67033;44.984;20.068;2023-04-01T17:51:08;6.38;;;4.55;;
57465;SDS011;67033;44.984;20.068;2023-04-01T17:54:05;8.13;;;4.05;;
57465;SDS011;67033;44.984;20.068;2023-04-01T17:56:45;5.93;;;4.30;;
57465;SDS011;67033;44.984;20.068;2023-04-01T17:59:44;6.35;;;3.88;;
57465;SDS011;67033;44.984;20.068;2023-04-01T18:19:22;8.95;;;4.90;;
57465;SDS011;67033;44.984;20.068;2023-04-01T18:24:40;9.65;;;5.60;;
57465;SDS011;67033;44.984;20.068;2023-04-01T18:27:15;8.95;;;4.80;;
57465;SDS011;67033;44.984;20.068;2023-04-01T18:30:11;11.68;;;5.57;;
57465;SDS011;67033;44.984;20.068;2023-04-01T18:37:58;8.48;;;4.40;;
57465;SDS011;67033;44.984;20.068;2023-04-01T18:46:33;8.65;;;5.97;;
57465;SDS011;67033;44.984;20.068;2023-04-01T18:49:15;11.43;;;6.45;;
57465;SDS011;67033;44.984;20.068;2023-04-01T19:00:28;11.88;;;7.70;;
57465;SDS011;67033;44.984;20.068;2023-04-01T19:05:45;11.18;;;5.75;;
57465;SDS011;67033;44.984;20.068;2023-04-01T19:19:50;3.85;;;1.48;;
57465;SDS011;67033;44.984;20.068;2023-04-01T19:22:41;3.72;;;1.40;;
57465;SDS011;67033;44.984;20.068;2023-04-01T19:27:52;2.30;;;1.27;;
57465;SDS011;67033;44.984;20.068;2023-04-01T19:35:55;14.23;;;2.00;;
57465;SDS011;67033;44.984;20.068;2023-04-01T19:38:38;3.40;;;1.55;;
57465;SDS011;67033;44.984;20.068;2023-04-01T19:41:12;9.20;;;1.70;;
57465;SDS011;67033;44.984;20.068;2023-04-01T19:46:53;6.55;;;1.88;;
57465;SDS011;67033;44.984;20.068;2023-04-01T19:52:53;3.67;;;1.27;;
57465;SDS011;67033;44.984;20.068;2023-04-01T20:00:42;6.22;;;0.57;;
57465;SDS011;67033;44.984;20.068;2023-04-01T20:03:28;7.35;;;0.60;;
57465;SDS011;67033;44.984;20.068;2023-04-01T20:06:11;3.53;;;1.10;;
57465;SDS011;67033;44.984;20.068;2023-04-01T20:09:08;11.75;;;4.10;;
57465;SDS011;67033;44.984;20.068;2023-04-01T20:14:47;8.10;;;4.20;;
57465;SDS011;67033;44.984;20.068;2023-04-01T20:20:24;2.47;;;0.88;;
57465;SDS011;67033;44.984;20.068;2023-04-01T20:23:38;2.13;;;0.55;;
57465;SDS011;67033;44.984;20.068;2023-04-01T20:26:04;4.45;;;1.70;;
57465;SDS011;67033;44.984;20.068;2023-04-01T20:28:42;4.45;;;1.10;;
57465;SDS011;67033;44.984;20.068;2023-04-01T20:36:34;1.05;;;0.70;;
57465;SDS011;67033;44.984;20.068;2023-04-01T20:50:51;10.60;;;1.27;;
57465;SDS011;67033;44.984;20.068;2023-04-01T21:06:57;5.20;;;3.15;;
57465;SDS011;67033;44.984;20.068;2023-04-01T21:12:34;10.02;;;6.20;;
57465;SDS011;67033;44.984;20.068;2023-04-01T21:15:25;6.85;;;4.28;;
57465;SDS011;67033;44.984;20.068;2023-04-01T21:35:35;9.93;;;3.50;;
57465;SDS011;67033;44.984;20.068;2023-04-01T21:40:53;5.25;;;2.75;;
57465;SDS011;67033;44.984;20.068;2023-04-01T22:05:36;5.47;;;4.00;;
57465;SDS011;67033;44.984;20.068;2023-04-01T22:16:29;6.55;;;4.00;;
57465;SDS011;67033;44.984;20.068;2023-04-01T22:19:17;10.55;;;4.25;;
57465;SDS011;67033;44.984;20.068;2023-04-01T22:27:31;6.80;;;4.57;;
57465;SDS011;67033;44.984;20.068;2023-04-01T22:32:44;6.40;;;4.03;;
57465;SDS011;67033;44.984;20.068;2023-04-01T22:38:09;8.00;;;3.95;;
57465;SDS011;67033;44.984;20.068;2023-04-01T22:43:36;8.02;;;4.40;;
57465;SDS011;67033;44.984;20.068;2023-04-01T22:49:07;6.18;;;3.72;;
57465;SDS011;67033;44.984;20.068;2023-04-01T22:51:42;7.20;;;4.18;;
57465;SDS011;67033;44.984;20.068;2023-04-01T22:57:08;8.32;;;5.68;;
57465;SDS011;67033;44.984;20.068;2023-04-01T22:59:45;15.43;;;13.07;;
57465;SDS011;67033;44.984;20.068;2023-04-01T23:04:45;23.65;;;20.55;;
57465;SDS011;67033;44.984;20.068;2023-04-01T23:10:00;16.88;;;14.73;;
57465;SDS011;67033;44.984;20.068;2023-04-01T23:12:27;14.05;;;11.32;;
57465;SDS011;67033;44.984;20.068;2023-04-01T23:14:55;13.50;;;9.30;;
57465;SDS011;67033;44.984;20.068;2023-04-01T23:20:11;9.70;;;6.72;;
57465;SDS011;67033;44.984;20.068;2023-04-01T23:33:08;8.57;;;4.65;;
57465;SDS011;67033;44.984;20.068;2023-04-01T23:35:46;5.07;;;3.83;;
57465;SDS011;67033;44.984;20.068;2023-04-01T23:38:12;5.47;;;3.67;;
57465;SDS011;67033;44.984;20.068;2023-04-01T23:40:39;5.65;;;3.90;;
57465;SDS011;67033;44.984;20.068;2023-04-01T23:43:18;9.05;;;3.75;;
57465;SDS011;67033;44.984;20.068;2023-04-01T23:45:48;3.40;;;2.72;;
57465;SDS011;67033;44.984;20.068;2023-04-01T23:48:15;2.67;;;2.03;;
57465;SDS011;67033;44.984;20.068;2023-04-01T23:50:41;2.70;;;2.13;;
57465;SDS011;67033;44.984;20.068;2023-04-01T23:53:11;8.25;;;2.00;;
57465;SDS011;67033;44.984;20.068;2023-04-01T23:55:40;3.38;;;2.13;;
